createdAt,value
2017-12-11T00:02:18.049Z,6.80
2017-12-11T00:04:45.693Z,6.90
2017-12-11T00:07:13.459Z,6.90
2017-12-11T00:09:41.212Z,6.90
2017-12-11T00:12:08.857Z,6.90
2017-12-11T00:14:36.845Z,6.90
2017-12-11T00:17:05.466Z,6.90
2017-12-11T00:19:33.072Z,6.90
2017-12-11T00:22:00.977Z,6.90
2017-12-11T00:24:28.764Z,7.00
2017-12-11T00:26:56.316Z,7.00
2017-12-11T00:29:23.937Z,7.00
2017-12-11T00:31:51.412Z,7.00
2017-12-11T00:34:18.992Z,7.00
2017-12-11T00:36:46.644Z,7.00
2017-12-11T00:39:14.532Z,7.00
2017-12-11T00:41:42.213Z,7.00
2017-12-11T00:44:09.868Z,7.00
2017-12-11T00:46:37.433Z,7.00
2017-12-11T00:49:04.908Z,7.00
2017-12-11T00:51:32.492Z,7.00
2017-12-11T00:53:59.999Z,7.00
2017-12-11T00:56:27.897Z,7.00
2017-12-11T00:58:55.440Z,7.00
2017-12-11T01:01:23.411Z,7.00
2017-12-11T01:03:51.272Z,7.00
2017-12-11T01:06:19.216Z,7.00
2017-12-11T01:08:48.891Z,7.00
2017-12-11T01:11:17.068Z,7.00
2017-12-11T01:13:44.618Z,7.00
2017-12-11T01:16:12.154Z,7.00
2017-12-11T01:18:40.059Z,7.00
2017-12-11T01:21:07.655Z,7.00
2017-12-11T01:23:35.144Z,7.00
2017-12-11T01:26:02.683Z,7.00
2017-12-11T01:28:30.252Z,7.00
2017-12-11T01:30:57.787Z,7.10
2017-12-11T01:33:25.355Z,7.10
2017-12-11T01:35:53.623Z,7.10
2017-12-11T01:38:21.106Z,7.10
2017-12-11T01:40:48.664Z,7.10
2017-12-11T01:43:16.196Z,7.10
2017-12-11T01:45:43.723Z,7.10
2017-12-11T01:48:11.164Z,7.10
2017-12-11T01:50:38.629Z,7.10
2017-12-11T01:53:06.195Z,7.10
2017-12-11T01:55:33.709Z,7.10
2017-12-11T01:58:01.654Z,7.00
2017-12-11T02:00:29.374Z,7.10
2017-12-11T02:02:56.998Z,7.00
2017-12-11T02:05:24.480Z,7.10
2017-12-11T02:07:52.337Z,7.10
2017-12-11T02:10:20.224Z,7.20
2017-12-11T02:12:47.719Z,7.20
2017-12-11T02:15:15.187Z,7.20
2017-12-11T02:17:42.771Z,7.30
2017-12-11T02:20:10.359Z,7.30
2017-12-11T02:22:38.247Z,7.30
2017-12-11T02:25:05.713Z,7.30
2017-12-11T02:27:33.303Z,7.30
2017-12-11T02:30:00.857Z,7.20
2017-12-11T02:32:28.313Z,7.20
2017-12-11T02:34:56.419Z,7.20
2017-12-11T02:37:23.909Z,7.20
2017-12-11T02:39:51.365Z,7.20
2017-12-11T02:42:19.168Z,7.20
2017-12-11T02:44:46.682Z,7.20
2017-12-11T02:47:14.313Z,7.20
2017-12-11T02:49:41.818Z,7.10
2017-12-11T02:52:09.332Z,7.20
2017-12-11T02:54:36.915Z,7.10
2017-12-11T02:57:04.388Z,7.10
2017-12-11T02:59:31.877Z,7.10
2017-12-11T03:01:59.496Z,7.20
2017-12-11T03:04:26.929Z,7.20
2017-12-11T03:06:54.836Z,7.30
2017-12-11T03:09:22.319Z,7.30
2017-12-11T03:11:49.814Z,7.30
2017-12-11T03:14:17.302Z,7.30
2017-12-11T03:16:45.236Z,7.30
2017-12-11T03:19:12.696Z,7.30
2017-12-11T03:21:40.280Z,7.30
2017-12-11T03:24:07.985Z,7.30
2017-12-11T03:26:35.501Z,7.30
2017-12-11T03:29:02.970Z,7.30
2017-12-11T03:31:30.913Z,7.30
2017-12-11T03:33:58.453Z,7.30
2017-12-11T03:36:26.283Z,7.30
2017-12-11T03:38:54.132Z,7.30
2017-12-11T03:41:22.166Z,7.30
2017-12-11T03:43:49.674Z,7.30
2017-12-11T03:46:17.151Z,7.20
2017-12-11T03:48:45.048Z,7.30
2017-12-11T03:51:12.511Z,7.30
2017-12-11T03:53:40.225Z,7.20
2017-12-11T03:56:07.956Z,7.30
2017-12-11T03:58:35.441Z,7.30
2017-12-11T04:01:02.911Z,7.30
2017-12-11T04:03:30.456Z,7.20
2017-12-11T04:05:58.133Z,7.20
2017-12-11T04:08:27.156Z,7.20
2017-12-11T04:10:55.213Z,7.20
2017-12-11T04:13:22.702Z,7.20
2017-12-11T04:15:50.642Z,7.20
2017-12-11T04:18:18.209Z,7.20
2017-12-11T04:20:45.847Z,7.20
2017-12-11T04:23:13.493Z,7.20
2017-12-11T04:25:41.293Z,7.10
2017-12-11T04:28:08.994Z,7.10
2017-12-11T04:30:36.761Z,7.10
2017-12-11T04:33:04.219Z,7.10
2017-12-11T04:35:31.739Z,7.10
2017-12-11T04:37:59.362Z,7.00
2017-12-11T04:40:26.876Z,7.00
2017-12-11T04:42:54.332Z,7.00
2017-12-11T04:45:22.346Z,6.90
2017-12-11T04:47:50.179Z,6.90
2017-12-11T04:50:18.442Z,6.90
2017-12-11T04:52:45.963Z,6.90
2017-12-11T04:55:13.473Z,6.80
2017-12-11T04:57:41.433Z,6.80
2017-12-11T05:00:09.523Z,6.80
2017-12-11T05:02:37.391Z,6.80
2017-12-11T05:05:05.066Z,6.80
2017-12-11T05:07:32.633Z,6.80
2017-12-11T05:10:00.269Z,6.80
2017-12-11T05:12:27.961Z,6.80
2017-12-11T05:14:55.662Z,6.80
2017-12-11T05:17:23.152Z,6.80
2017-12-11T05:19:51.047Z,6.80
2017-12-11T05:22:18.576Z,6.70
2017-12-11T05:24:46.074Z,6.70
2017-12-11T05:27:13.991Z,6.70
2017-12-11T05:29:41.744Z,6.70
2017-12-11T05:32:09.289Z,6.70
2017-12-11T05:34:36.808Z,6.70
2017-12-11T05:37:04.696Z,6.70
2017-12-11T05:39:32.202Z,6.70
2017-12-11T05:41:59.720Z,6.70
2017-12-11T05:44:27.726Z,6.70
2017-12-11T05:46:55.187Z,6.70
2017-12-11T05:49:22.740Z,6.70
2017-12-11T05:51:50.249Z,6.70
2017-12-11T05:54:17.739Z,6.70
2017-12-11T05:56:45.433Z,6.70
2017-12-11T05:59:12.984Z,6.70
2017-12-11T06:01:40.844Z,6.70
2017-12-11T06:04:08.817Z,6.70
2017-12-11T06:06:36.505Z,6.70
2017-12-11T06:09:04.372Z,6.80
2017-12-11T06:11:32.167Z,6.80
2017-12-11T06:14:00.168Z,6.80
2017-12-11T06:16:27.700Z,6.80
2017-12-11T06:18:55.226Z,6.80
2017-12-11T06:21:22.966Z,6.90
2017-12-11T06:23:50.374Z,6.80
2017-12-11T06:26:17.892Z,6.90
2017-12-11T06:28:45.328Z,6.90
2017-12-11T06:31:12.757Z,6.90
2017-12-11T06:33:40.240Z,6.90
2017-12-11T06:36:07.673Z,6.90
2017-12-11T06:38:35.508Z,6.90
2017-12-11T06:41:03.120Z,6.90
2017-12-11T06:43:31.015Z,6.90
2017-12-11T06:45:58.461Z,6.90
2017-12-11T06:48:25.943Z,6.90
2017-12-11T06:50:53.425Z,7.00
2017-12-11T06:53:20.984Z,7.00
2017-12-11T06:55:48.421Z,7.00
2017-12-11T06:58:15.851Z,6.90
2017-12-11T07:00:43.773Z,6.90
2017-12-11T07:03:11.213Z,6.90
2017-12-11T07:05:38.656Z,6.90
2017-12-11T07:08:06.138Z,6.80
2017-12-11T07:10:33.618Z,6.80
2017-12-11T07:13:01.081Z,6.90
2017-12-11T07:15:28.514Z,6.90
2017-12-11T07:17:55.981Z,6.90
2017-12-11T07:20:23.411Z,6.90
2017-12-11T07:22:51.225Z,6.80
2017-12-11T07:25:18.671Z,6.80
2017-12-11T07:27:46.294Z,6.80
2017-12-11T07:30:13.719Z,6.80
2017-12-11T07:32:41.151Z,6.90
2017-12-11T07:35:08.585Z,6.90
2017-12-11T07:37:36.505Z,7.00
2017-12-11T07:40:04.162Z,7.00
2017-12-11T07:42:31.604Z,7.00
2017-12-11T07:44:59.105Z,7.00
2017-12-11T07:47:26.531Z,7.00
2017-12-11T07:49:53.989Z,7.00
2017-12-11T07:52:21.823Z,7.00
2017-12-11T07:54:49.259Z,7.00
2017-12-11T07:57:16.741Z,7.00
2017-12-11T07:59:44.348Z,7.10
2017-12-11T08:02:12.171Z,7.10
2017-12-11T08:04:39.609Z,7.10
2017-12-11T08:07:07.045Z,7.10
2017-12-11T08:09:34.544Z,7.10
2017-12-11T08:12:01.977Z,7.10
2017-12-11T08:14:29.469Z,7.10
2017-12-11T08:16:56.956Z,7.10
2017-12-11T08:19:24.909Z,7.10
2017-12-11T08:21:52.325Z,7.10
2017-12-11T08:24:19.766Z,7.10
2017-12-11T08:26:47.652Z,7.20
2017-12-11T08:29:15.552Z,7.20
2017-12-11T08:31:43.276Z,7.20
2017-12-11T08:34:10.842Z,7.20
2017-12-11T08:36:38.465Z,7.20
2017-12-11T08:39:05.887Z,7.20
2017-12-11T08:41:33.326Z,7.20
2017-12-11T08:44:00.815Z,7.20
2017-12-11T08:46:28.237Z,7.20
2017-12-11T08:48:55.708Z,7.10
2017-12-11T08:51:23.133Z,7.10
2017-12-11T08:53:50.608Z,7.00
2017-12-11T08:56:18.113Z,7.00
2017-12-11T08:58:45.947Z,7.00
2017-12-11T09:01:13.427Z,7.00
2017-12-11T09:03:40.959Z,7.00
2017-12-11T09:06:08.401Z,6.90
2017-12-11T09:08:35.965Z,6.90
2017-12-11T09:11:03.448Z,6.90
2017-12-11T09:13:30.984Z,6.90
2017-12-11T09:15:58.483Z,6.90
2017-12-11T09:18:25.955Z,6.90
2017-12-11T09:20:53.466Z,7.00
2017-12-11T09:23:20.978Z,7.00
2017-12-11T09:25:48.389Z,7.10
2017-12-11T09:28:15.842Z,7.10
2017-12-11T09:30:43.969Z,7.10
2017-12-11T09:33:11.515Z,7.10
2017-12-11T09:35:39.400Z,7.10
2017-12-11T09:38:06.843Z,7.10
2017-12-11T09:40:34.277Z,7.10
2017-12-11T09:43:01.731Z,7.20
2017-12-11T09:45:29.600Z,7.20
2017-12-11T09:47:58.651Z,7.30
2017-12-11T09:50:26.243Z,7.30
2017-12-11T09:52:53.811Z,7.30
2017-12-11T09:55:21.419Z,7.30
2017-12-11T09:57:48.958Z,7.30
2017-12-11T10:00:16.803Z,7.40
2017-12-11T10:02:44.436Z,7.40
2017-12-11T10:05:11.973Z,7.40
2017-12-11T10:07:39.872Z,7.40
2017-12-11T10:10:07.603Z,7.40
2017-12-11T10:12:36.007Z,7.40
2017-12-11T10:15:03.461Z,7.40
2017-12-11T10:17:30.891Z,7.50
2017-12-11T10:19:58.741Z,7.50
2017-12-11T10:22:26.170Z,7.50
2017-12-11T10:24:53.649Z,7.50
2017-12-11T10:27:21.052Z,7.60
2017-12-11T10:29:48.885Z,7.60
2017-12-11T10:32:16.454Z,7.60
2017-12-11T10:34:44.041Z,7.60
2017-12-11T10:37:11.650Z,7.70
2017-12-11T10:39:39.797Z,7.70
2017-12-11T10:42:07.652Z,7.70
2017-12-11T10:44:35.100Z,7.70
2017-12-11T10:47:02.569Z,7.70
2017-12-11T10:49:30.021Z,7.80
2017-12-11T10:51:57.569Z,7.80
2017-12-11T10:54:25.069Z,7.80
2017-12-11T10:56:52.520Z,7.80
2017-12-11T10:59:20.700Z,7.90
2017-12-11T11:01:48.139Z,7.90
2017-12-11T11:04:15.587Z,7.90
2017-12-11T11:06:43.025Z,7.90
2017-12-11T11:09:10.539Z,8.00
2017-12-11T11:11:38.085Z,8.00
2017-12-11T11:14:05.525Z,8.00
2017-12-11T11:16:32.944Z,8.00
2017-12-11T11:19:00.796Z,8.10
2017-12-11T11:21:28.228Z,8.10
2017-12-11T11:23:55.668Z,8.10
2017-12-11T11:26:23.176Z,8.10
2017-12-11T11:28:50.963Z,8.10
2017-12-11T11:31:18.574Z,8.10
2017-12-11T11:33:46.040Z,8.10
2017-12-11T11:36:13.463Z,8.10
2017-12-11T11:38:41.372Z,8.20
2017-12-11T11:41:08.809Z,8.20
2017-12-11T11:43:36.257Z,8.20
2017-12-11T11:46:04.104Z,8.20
2017-12-11T11:48:31.525Z,8.20
2017-12-11T11:50:58.990Z,8.20
2017-12-11T11:53:26.795Z,8.20
2017-12-11T11:55:54.229Z,8.20
2017-12-11T11:58:21.656Z,8.20
2017-12-11T12:00:49.072Z,8.30
2017-12-11T12:03:16.512Z,8.30
2017-12-11T12:05:43.958Z,8.30
2017-12-11T12:08:11.376Z,8.40
2017-12-11T12:10:38.902Z,8.40
2017-12-11T12:13:06.344Z,8.40
2017-12-11T12:15:33.788Z,8.40
2017-12-11T12:18:01.263Z,8.50
2017-12-11T12:20:28.714Z,8.50
2017-12-11T12:22:56.223Z,8.60
2017-12-11T12:25:24.263Z,8.50
2017-12-11T12:27:51.683Z,8.60
2017-12-11T12:30:19.505Z,8.50
2017-12-11T12:32:46.964Z,8.50
2017-12-11T12:35:14.424Z,8.50
2017-12-11T12:37:42.917Z,8.50
2017-12-11T12:40:10.621Z,8.50
2017-12-11T12:42:38.035Z,8.50
2017-12-11T12:45:06.114Z,8.50
2017-12-11T12:47:33.723Z,8.50
2017-12-11T12:50:01.464Z,8.50
2017-12-11T12:52:29.030Z,8.50
2017-12-11T12:54:56.498Z,8.50
2017-12-11T12:57:24.152Z,8.60
2017-12-11T12:59:52.398Z,8.60
2017-12-11T13:02:20.783Z,8.60
2017-12-11T13:04:48.244Z,8.60
2017-12-11T13:07:16.098Z,8.70
2017-12-11T13:09:44.116Z,8.80
2017-12-11T13:12:11.764Z,8.80
2017-12-11T13:14:39.664Z,8.90
2017-12-11T13:17:07.406Z,8.90
2017-12-11T13:19:35.335Z,9.00
2017-12-11T13:22:02.766Z,9.00
2017-12-11T13:24:30.207Z,9.00
2017-12-11T13:26:57.667Z,9.10
2017-12-11T13:29:25.120Z,9.10
2017-12-11T13:31:52.544Z,9.10
2017-12-11T13:34:20.372Z,9.20
2017-12-11T13:36:47.826Z,9.20
2017-12-11T13:39:15.294Z,9.20
2017-12-11T13:41:42.723Z,9.30
2017-12-11T13:44:10.800Z,9.40
2017-12-11T13:46:38.270Z,9.40
2017-12-11T13:49:06.110Z,9.40
2017-12-11T13:51:33.571Z,9.40
2017-12-11T13:54:01.520Z,9.40
2017-12-11T13:56:28.991Z,9.40
2017-12-11T13:58:56.515Z,9.40
2017-12-11T14:01:23.965Z,9.40
2017-12-11T14:03:51.452Z,9.40
2017-12-11T14:06:19.627Z,9.40
2017-12-11T14:08:47.044Z,9.40
2017-12-11T14:11:15.087Z,9.50
2017-12-11T14:13:42.681Z,9.50
2017-12-11T14:16:10.166Z,9.50
2017-12-11T14:18:37.740Z,9.50
2017-12-11T14:21:05.401Z,9.50
2017-12-11T14:23:33.482Z,9.50
2017-12-11T14:26:01.050Z,9.50
2017-12-11T14:28:28.716Z,9.60
2017-12-11T14:30:56.196Z,9.60
2017-12-11T14:33:23.738Z,9.60
2017-12-11T14:35:51.191Z,9.60
2017-12-11T14:38:18.647Z,9.60
2017-12-11T14:40:46.483Z,9.60
2017-12-11T14:43:14.816Z,9.60
2017-12-11T14:45:42.480Z,9.50
2017-12-11T14:48:10.357Z,9.40
2017-12-11T14:50:37.874Z,9.40
2017-12-11T14:53:05.468Z,9.40
2017-12-11T14:55:32.932Z,9.30
2017-12-11T14:58:00.779Z,9.20
2017-12-11T15:00:28.896Z,9.10
2017-12-11T15:02:56.319Z,9.10
2017-12-11T15:05:24.196Z,9.00
2017-12-11T15:07:52.149Z,9.00
2017-12-11T15:10:19.627Z,8.90
2017-12-11T15:12:47.053Z,8.90
2017-12-11T15:15:14.813Z,8.80
2017-12-11T15:17:42.251Z,8.70
2017-12-11T15:20:09.716Z,8.70
2017-12-11T15:22:37.147Z,8.80
2017-12-11T15:25:04.965Z,8.70
2017-12-11T15:27:32.426Z,8.70
2017-12-11T15:29:59.941Z,8.70
2017-12-11T15:32:27.789Z,8.80
2017-12-11T15:34:55.228Z,8.80
2017-12-11T15:37:22.852Z,8.80
2017-12-11T15:39:50.324Z,8.80
2017-12-11T15:42:17.900Z,8.80
2017-12-11T15:44:45.377Z,8.90
2017-12-11T15:47:12.853Z,8.90
2017-12-11T15:49:40.786Z,8.90
2017-12-11T15:52:09.302Z,8.90
2017-12-11T15:54:37.625Z,8.90
2017-12-11T15:57:05.677Z,8.90
2017-12-11T15:59:33.349Z,8.90
2017-12-11T16:02:01.124Z,8.90
2017-12-11T16:04:28.643Z,8.90
2017-12-11T16:06:56.303Z,8.90
2017-12-11T16:09:24.019Z,9.00
2017-12-11T16:11:51.637Z,8.90
2017-12-11T16:14:19.062Z,8.90
2017-12-11T16:16:46.961Z,8.90
2017-12-11T16:19:14.469Z,8.90
2017-12-11T16:21:41.956Z,8.90
2017-12-11T16:24:09.450Z,8.90
2017-12-11T16:26:37.319Z,8.90
2017-12-11T16:29:04.801Z,8.90
2017-12-11T16:31:32.223Z,8.90
2017-12-11T16:33:59.728Z,8.90
2017-12-11T16:36:27.162Z,8.90
2017-12-11T16:38:54.627Z,8.80
2017-12-11T16:41:22.107Z,8.90
2017-12-11T16:43:49.629Z,8.90
2017-12-11T16:46:17.495Z,8.90
2017-12-11T16:48:45.428Z,8.90
2017-12-11T16:51:12.887Z,8.90
2017-12-11T16:53:40.322Z,8.90
2017-12-11T16:56:07.759Z,8.90
2017-12-11T16:58:35.193Z,8.90
2017-12-11T17:01:02.731Z,9.00
2017-12-11T17:03:30.335Z,9.00
2017-12-11T17:05:57.848Z,9.00
2017-12-11T17:08:25.303Z,9.00
2017-12-11T17:10:53.073Z,8.90
2017-12-11T17:13:20.501Z,8.80
2017-12-11T17:15:48.466Z,8.80
2017-12-11T17:18:15.835Z,8.80
2017-12-11T17:20:43.288Z,8.80
2017-12-11T17:23:10.796Z,8.80
2017-12-11T17:25:38.232Z,8.80
2017-12-11T17:28:05.665Z,8.80
2017-12-11T17:30:33.499Z,8.80
2017-12-11T17:33:00.982Z,8.80
2017-12-11T17:35:28.479Z,8.80
2017-12-11T17:37:56.373Z,8.90
2017-12-11T17:40:23.900Z,8.90
2017-12-11T17:42:52.177Z,8.80
2017-12-11T17:45:19.744Z,8.80
2017-12-11T17:47:47.576Z,8.80
2017-12-11T17:50:15.182Z,8.80
2017-12-11T17:52:42.752Z,8.80
2017-12-11T17:55:10.218Z,8.80
2017-12-11T17:57:38.119Z,8.70
2017-12-11T18:00:05.987Z,8.80
2017-12-11T18:02:33.939Z,8.70
2017-12-11T18:05:01.874Z,8.80
2017-12-11T18:07:30.009Z,8.80
2017-12-11T18:09:58.428Z,8.70
2017-12-11T18:12:25.982Z,8.70
2017-12-11T18:14:53.464Z,8.70
2017-12-11T18:17:20.904Z,8.70
2017-12-11T18:19:49.030Z,8.70
2017-12-11T18:22:16.648Z,8.70
2017-12-11T18:24:44.151Z,8.70
2017-12-11T18:27:12.038Z,8.60
2017-12-11T18:29:39.894Z,8.60
2017-12-11T18:32:07.976Z,8.60
2017-12-11T18:34:35.755Z,8.70
2017-12-11T18:37:03.555Z,8.60
2017-12-11T18:39:31.431Z,8.60
2017-12-11T18:41:59.125Z,8.60
2017-12-11T18:44:26.558Z,8.70
2017-12-11T18:46:54.083Z,8.60
2017-12-11T18:49:21.785Z,8.60
2017-12-11T18:51:49.327Z,8.60
2017-12-11T18:54:17.187Z,8.60
2017-12-11T18:56:44.663Z,8.60
2017-12-11T18:59:12.130Z,8.60
2017-12-11T19:01:39.925Z,8.60
2017-12-11T19:04:07.553Z,8.50
2017-12-11T19:06:35.050Z,8.60
2017-12-11T19:09:02.489Z,8.60
2017-12-11T19:11:29.947Z,8.60
2017-12-11T19:13:58.445Z,8.60
2017-12-11T19:16:26.125Z,8.60
2017-12-11T19:18:53.865Z,8.60
2017-12-11T19:21:21.754Z,8.50
2017-12-11T19:23:49.257Z,8.50
2017-12-11T19:26:17.165Z,8.50
2017-12-11T19:28:45.066Z,8.60
2017-12-11T19:31:13.167Z,8.50
2017-12-11T19:33:41.133Z,8.50
2017-12-11T19:36:08.971Z,8.50
2017-12-11T19:38:36.505Z,8.50
2017-12-11T19:41:05.193Z,8.50
2017-12-11T19:43:33.586Z,8.50
2017-12-11T19:46:01.699Z,8.50
2017-12-11T19:48:29.267Z,8.50
2017-12-11T19:50:56.806Z,8.50
2017-12-11T19:53:24.246Z,8.40
2017-12-11T19:55:52.292Z,8.40
2017-12-11T19:58:19.886Z,8.40
2017-12-11T20:00:47.937Z,8.40
2017-12-11T20:03:15.660Z,8.40
2017-12-11T20:05:43.286Z,8.50
2017-12-11T20:08:10.750Z,8.50
2017-12-11T20:10:38.280Z,8.50
2017-12-11T20:13:05.806Z,8.50
2017-12-11T20:15:33.367Z,8.50
2017-12-11T20:18:02.570Z,8.50
2017-12-11T20:20:30.547Z,8.50
2017-12-11T20:22:58.213Z,8.50
2017-12-11T20:25:25.672Z,8.50
2017-12-11T20:27:53.283Z,8.50
2017-12-11T20:30:20.820Z,8.50
2017-12-11T20:32:48.279Z,8.50
2017-12-11T20:35:15.739Z,8.50
2017-12-11T20:37:43.304Z,8.60
2017-12-11T20:40:10.814Z,8.50
2017-12-11T20:42:38.742Z,8.50
2017-12-11T20:45:06.305Z,8.50
2017-12-11T20:53:15.761Z,8.50
2017-12-11T20:55:43.376Z,8.50
2017-12-11T20:58:11.009Z,8.50
2017-12-11T21:00:38.564Z,8.50
2017-12-11T21:03:06.008Z,8.50
2017-12-11T21:05:33.443Z,8.60
2017-12-11T21:08:01.317Z,8.60
2017-12-11T21:10:29.364Z,8.50
2017-12-11T21:12:57.669Z,8.50
2017-12-11T21:15:25.132Z,8.50
2017-12-11T21:17:53.115Z,8.40
2017-12-11T21:20:21.066Z,8.30
2017-12-11T21:22:49.282Z,8.30
2017-12-11T21:25:16.763Z,8.20
2017-12-11T21:27:44.280Z,8.10
2017-12-11T21:30:12.249Z,8.00
2017-12-11T21:32:40.132Z,8.00
2017-12-11T21:35:07.591Z,8.00
2017-12-11T21:37:35.596Z,7.90
2017-12-11T21:40:03.162Z,7.90
2017-12-11T21:42:30.636Z,7.90
2017-12-11T21:44:58.242Z,7.90
2017-12-11T21:47:25.696Z,7.90
2017-12-11T21:49:53.204Z,7.90
2017-12-11T21:52:20.767Z,7.90
2017-12-11T21:54:48.276Z,7.90
2017-12-11T21:57:15.776Z,7.90
2017-12-11T21:59:44.315Z,8.00
2017-12-11T22:02:11.852Z,8.00
2017-12-11T22:04:39.317Z,8.00
2017-12-11T22:07:07.108Z,8.00
2017-12-11T22:09:34.575Z,8.10
2017-12-11T22:12:02.053Z,8.10
2017-12-11T22:14:29.618Z,8.10
2017-12-11T22:16:57.086Z,8.10
2017-12-11T22:19:24.725Z,8.10
2017-12-11T22:21:52.378Z,8.10
2017-12-11T22:24:19.859Z,8.10
2017-12-11T22:26:47.306Z,8.10
2017-12-11T22:29:14.868Z,8.10
2017-12-11T22:31:42.430Z,8.10
2017-12-11T22:34:10.104Z,8.10
2017-12-11T22:36:37.664Z,8.00
2017-12-11T22:39:05.162Z,8.00
2017-12-11T22:41:32.837Z,8.00
2017-12-11T22:44:00.341Z,7.90
2017-12-11T22:46:27.821Z,7.90
2017-12-11T22:48:55.465Z,7.90
2017-12-11T22:51:23.223Z,7.90
2017-12-11T22:53:50.724Z,7.80
2017-12-11T22:56:18.222Z,7.80
2017-12-11T22:58:46.914Z,7.70
2017-12-11T23:01:14.931Z,7.70
2017-12-11T23:03:42.414Z,7.70
2017-12-11T23:06:09.894Z,7.70
2017-12-11T23:08:37.440Z,7.80
2017-12-11T23:11:04.962Z,7.70
2017-12-11T23:13:32.492Z,7.70
2017-12-11T23:16:00.198Z,7.70
2017-12-11T23:18:28.069Z,7.70
2017-12-11T23:20:56.196Z,7.60
2017-12-11T23:23:23.909Z,7.60
2017-12-11T23:25:51.379Z,7.70
2017-12-11T23:31:09.753Z,7.60
2017-12-11T23:33:37.183Z,7.60
2017-12-11T23:36:04.641Z,7.60
2017-12-11T23:38:32.130Z,7.60
2017-12-11T23:40:59.642Z,7.60
2017-12-11T23:43:28.313Z,7.70
2017-12-11T23:45:56.743Z,7.70
2017-12-11T23:48:24.571Z,7.60
2017-12-11T23:50:52.096Z,7.60
2017-12-11T23:53:19.559Z,7.60
2017-12-11T23:55:47.035Z,7.60
2017-12-11T23:58:14.504Z,7.60
